Time;durP1;ratioP1;P1;durP2;ratioP2;P2;SDS_P1;SDS_P2;PMS_P1;PMS_P2;Temp;Humidity;BMP_temperature;BMP_pressure;BME280_temperature;BME280_humidity;BME280_pressure;Samples;Min_cycle;Max_cycle;Signal;HPM_P1;HPM_P2
2023/07/17 00:01:08;;;;;;;11.05;2.20;;;;;;;;;;5023516;28;20033;-64
2023/07/17 00:03:34;;;;;;;9.07;1.90;;;;;;;;;;5022462;28;20041;-64
2023/07/17 00:06:00;;;;;;;9.88;2.03;;;;;;;;;;5021148;28;20025;-64
2023/07/17 00:08:26;;;;;;;9.25;1.98;;;;;;;;;;5022132;28;20029;-64
2023/07/17 00:10:53;;;;;;;9.40;2.15;;;;;;;;;;5022892;28;20083;-64
2023/07/17 00:13:19;;;;;;;8.75;2.33;;;;;;;;;;5021928;28;20083;-64
2023/07/17 00:15:45;;;;;;;8.55;2.05;;;;;;;;;;5022339;28;20038;-64
2023/07/17 00:18:11;;;;;;;7.75;2.10;;;;;;;;;;5022623;28;20048;-64
2023/07/17 00:20:37;;;;;;;6.20;1.75;;;;;;;;;;5022890;28;20050;-64
2023/07/17 00:23:03;;;;;;;9.88;2.38;;;;;;;;;;5023267;28;20515;-64
2023/07/17 00:25:29;;;;;;;10.52;2.17;;;;;;;;;;5023357;28;20476;-64
2023/07/17 00:27:56;;;;;;;9.75;2.10;;;;;;;;;;5029149;28;20036;-64
2023/07/17 00:30:22;;;;;;;10.93;2.53;;;;;;;;;;5022865;28;20378;-64
2023/07/17 00:32:48;;;;;;;9.52;3.38;;;;;;;;;;5023785;28;20038;-64
2023/07/17 00:35:14;;;;;;;11.02;2.65;;;;;;;;;;5022631;28;20032;-64
2023/07/17 00:37:40;;;;;;;8.02;2.28;;;;;;;;;;5022605;28;20041;-64
2023/07/17 00:40:09;;;;;;;8.10;2.17;;;;;;;;;;5023360;28;20068;-63
2023/07/17 00:42:36;;;;;;;13.07;2.88;;;;;;;;;;5023564;28;20390;-64
2023/07/17 00:45:02;;;;;;;11.57;2.60;;;;;;;;;;5023265;28;20040;-64
2023/07/17 00:47:28;;;;;;;12.82;2.88;;;;;;;;;;5023588;28;20047;-64
2023/07/17 00:49:57;;;;;;;9.90;2.85;;;;;;;;;;5023188;28;20075;-63
2023/07/17 00:52:24;;;;;;;8.75;2.50;;;;;;;;;;5022720;28;20059;-64
2023/07/17 00:54:51;;;;;;;8.80;2.28;;;;;;;;;;5022663;28;20033;-64
2023/07/17 00:57:17;;;;;;;10.60;2.72;;;;;;;;;;5023646;28;20124;-64
2023/07/17 00:59:47;;;;;;;10.77;2.20;;;;;;;;;;5023304;28;20021;-64
2023/07/17 01:02:14;;;;;;;9.45;2.13;;;;;;;;;;5021327;28;20064;-64
2023/07/17 01:04:49;;;;;;;9.70;2.00;;;;;;;;;;5022407;28;20038;-64
2023/07/17 01:07:16;;;;;;;7.95;2.30;;;;;;;;;;5021440;28;20075;-64
2023/07/17 01:09:42;;;;;;;9.30;2.25;;;;;;;;;;5021769;28;20025;-64
2023/07/17 01:12:08;;;;;;;9.73;2.38;;;;;;;;;;5021780;28;20044;-63
2023/07/17 01:14:34;;;;;;;6.75;2.00;;;;;;;;;;5022320;28;20033;-64
2023/07/17 01:17:00;;;;;;;5.38;1.77;;;;;;;;;;5020097;28;20471;-64
2023/07/17 01:19:27;;;;;;;6.72;2.05;;;;;;;;;;5022529;28;20711;-64
2023/07/17 01:21:56;;;;;;;6.82;2.00;;;;;;;;;;5021973;28;20041;-64
2023/07/17 01:24:22;;;;;;;7.25;1.60;;;;;;;;;;5022049;28;20484;-64
2023/07/17 01:26:48;;;;;;;6.22;1.80;;;;;;;;;;5020380;28;20036;-64
2023/07/17 01:29:17;;;;;;;6.80;1.80;;;;;;;;;;5024906;28;20296;-64
2023/07/17 01:31:43;;;;;;;6.80;2.53;;;;;;;;;;5025049;28;20045;-64
2023/07/17 01:34:10;;;;;;;6.10;1.90;;;;;;;;;;5024569;28;20076;-64
2023/07/17 01:36:36;;;;;;;6.57;2.45;;;;;;;;;;5023446;28;20059;-64
2023/07/17 01:39:02;;;;;;;6.88;1.88;;;;;;;;;;5025832;28;20035;-64
2023/07/17 01:41:29;;;;;;;7.47;2.35;;;;;;;;;;5025061;28;20033;-64
2023/07/17 01:43:55;;;;;;;6.38;2.05;;;;;;;;;;5026636;28;20034;-64
2023/07/17 01:46:21;;;;;;;7.15;2.40;;;;;;;;;;5024906;28;20842;-64
2023/07/17 01:48:47;;;;;;;7.68;2.30;;;;;;;;;;5025413;28;20114;-63
2023/07/17 01:51:13;;;;;;;7.88;2.15;;;;;;;;;;5025819;28;20037;-64
2023/07/17 01:53:39;;;;;;;7.97;2.67;;;;;;;;;;5026217;28;20038;-64
2023/07/17 01:56:05;;;;;;;8.48;2.15;;;;;;;;;;5025557;28;20020;-64
2023/07/17 01:58:32;;;;;;;6.40;2.08;;;;;;;;;;5025256;28;20067;-64
2023/07/17 02:00:58;;;;;;;9.15;2.58;;;;;;;;;;5030700;28;20048;-64
2023/07/17 02:03:24;;;;;;;8.60;2.35;;;;;;;;;;5024893;28;20036;-64
2023/07/17 02:05:50;;;;;;;7.05;1.90;;;;;;;;;;5025556;28;20138;-64
2023/07/17 02:08:16;;;;;;;4.45;1.75;;;;;;;;;;5026226;28;20484;-64
2023/07/17 02:10:43;;;;;;;8.63;2.35;;;;;;;;;;5025996;28;20787;-64
2023/07/17 02:13:09;;;;;;;9.98;2.60;;;;;;;;;;5024992;28;20025;-64
2023/07/17 02:15:35;;;;;;;7.97;2.00;;;;;;;;;;5025223;28;20464;-64
2023/07/17 02:18:02;;;;;;;7.85;2.55;;;;;;;;;;5024913;28;21806;-64
2023/07/17 02:20:28;;;;;;;7.32;2.47;;;;;;;;;;5024477;28;20374;-64
2023/07/17 02:22:54;;;;;;;9.82;2.45;;;;;;;;;;5025466;28;20026;-64
2023/07/17 02:25:20;;;;;;;8.02;2.42;;;;;;;;;;5025447;28;20115;-64
2023/07/17 02:27:46;;;;;;;10.05;2.63;;;;;;;;;;5025569;28;20060;-64
2023/07/17 02:30:12;;;;;;;6.85;2.20;;;;;;;;;;5025395;28;21880;-64
2023/07/17 02:32:38;;;;;;;4.32;1.85;;;;;;;;;;5024263;28;20173;-64
2023/07/17 02:35:05;;;;;;;9.45;2.35;;;;;;;;;;5025076;28;20100;-64
2023/07/17 02:37:31;;;;;;;8.55;2.20;;;;;;;;;;5025833;28;20057;-64
2023/07/17 02:39:57;;;;;;;6.05;2.40;;;;;;;;;;5024820;28;20041;-64
2023/07/17 02:42:23;;;;;;;8.68;2.15;;;;;;;;;;5025633;28;20112;-65
2023/07/17 02:44:49;;;;;;;6.43;2.22;;;;;;;;;;5026132;28;20036;-65
2023/07/17 02:47:17;;;;;;;7.97;2.40;;;;;;;;;;5025503;28;20054;-65
2023/07/17 02:49:43;;;;;;;6.85;1.95;;;;;;;;;;5024968;28;20071;-65
2023/07/17 02:52:09;;;;;;;6.38;1.67;;;;;;;;;;5026145;28;20032;-66
2023/07/17 02:54:39;;;;;;;8.52;2.15;;;;;;;;;;5024457;28;20121;-65
2023/07/17 02:57:05;;;;;;;7.38;1.85;;;;;;;;;;5024147;28;20029;-65
2023/07/17 02:59:31;;;;;;;10.18;2.42;;;;;;;;;;5024626;28;20072;-65
2023/07/17 03:01:58;;;;;;;9.38;3.15;;;;;;;;;;5024489;28;20081;-65
2023/07/17 03:04:27;;;;;;;6.13;2.17;;;;;;;;;;5024100;28;20057;-65
2023/07/17 03:06:53;;;;;;;7.75;2.13;;;;;;;;;;5024244;28;20426;-63
2023/07/17 03:09:19;;;;;;;10.43;3.03;;;;;;;;;;5024786;28;20021;-63
2023/07/17 03:11:45;;;;;;;8.43;2.95;;;;;;;;;;5023525;28;20032;-63
2023/07/17 03:14:14;;;;;;;7.82;2.50;;;;;;;;;;5025323;28;21793;-63
2023/07/17 03:16:41;;;;;;;12.15;3.05;;;;;;;;;;5023979;28;20033;-63
2023/07/17 03:19:07;;;;;;;8.55;2.75;;;;;;;;;;5024825;28;20030;-63
2023/07/17 03:21:33;;;;;;;9.25;2.67;;;;;;;;;;5023171;28;20042;-63
2023/07/17 03:23:59;;;;;;;10.73;3.00;;;;;;;;;;5023779;28;20048;-63
2023/07/17 03:26:25;;;;;;;7.20;2.70;;;;;;;;;;5024175;28;20194;-63
2023/07/17 03:28:51;;;;;;;8.18;3.47;;;;;;;;;;5024299;28;20038;-63
2023/07/17 03:31:17;;;;;;;7.93;2.85;;;;;;;;;;5024739;28;20033;-63
2023/07/17 03:33:44;;;;;;;13.70;3.75;;;;;;;;;;5022684;28;21743;-63
2023/07/17 03:36:10;;;;;;;7.07;2.63;;;;;;;;;;5024844;28;21777;-63
2023/07/17 03:38:36;;;;;;;8.38;3.05;;;;;;;;;;5024388;28;20119;-63
2023/07/17 03:41:03;;;;;;;12.05;3.28;;;;;;;;;;5024741;28;20072;-63
2023/07/17 03:43:29;;;;;;;11.60;2.63;;;;;;;;;;5023627;28;20033;-63
2023/07/17 03:45:55;;;;;;;7.18;2.60;;;;;;;;;;5023526;28;20033;-63
2023/07/17 03:48:21;;;;;;;8.68;2.60;;;;;;;;;;5023260;28;20068;-63
2023/07/17 03:50:48;;;;;;;8.13;2.88;;;;;;;;;;5023649;28;20037;-65
2023/07/17 03:53:14;;;;;;;10.45;3.22;;;;;;;;;;5024545;28;21250;-65
2023/07/17 03:55:40;;;;;;;10.35;2.80;;;;;;;;;;5024055;28;20045;-65
2023/07/17 03:58:07;;;;;;;8.55;2.60;;;;;;;;;;5023313;28;20025;-65
2023/07/17 04:00:33;;;;;;;8.23;2.55;;;;;;;;;;5023595;28;20090;-65
2023/07/17 04:02:59;;;;;;;10.50;2.78;;;;;;;;;;5024340;28;20152;-65
2023/07/17 04:05:25;;;;;;;9.13;2.53;;;;;;;;;;5024590;28;20392;-65
2023/07/17 04:07:51;;;;;;;10.25;2.53;;;;;;;;;;5024581;28;20033;-65
2023/07/17 04:10:17;;;;;;;8.00;2.80;;;;;;;;;;5030271;28;20033;-65
2023/07/17 04:12:43;;;;;;;6.35;2.40;;;;;;;;;;5024140;28;21805;-65
2023/07/17 04:15:10;;;;;;;8.63;2.55;;;;;;;;;;5023880;28;20642;-66
2023/07/17 04:17:36;;;;;;;8.57;2.28;;;;;;;;;;5024590;28;20041;-66
2023/07/17 04:20:09;;;;;;;9.80;2.25;;;;;;;;;;5024748;28;20422;-66
2023/07/17 04:22:35;;;;;;;8.93;2.17;;;;;;;;;;5024067;28;20843;-65
2023/07/17 04:25:02;;;;;;;7.00;2.55;;;;;;;;;;5024634;28;20033;-65
2023/07/17 04:27:30;;;;;;;7.65;2.50;;;;;;;;;;5023690;28;20033;-65
2023/07/17 04:29:56;;;;;;;9.35;2.33;;;;;;;;;;5023792;28;20029;-65
2023/07/17 04:32:22;;;;;;;8.02;2.15;;;;;;;;;;5021606;28;20086;-65
2023/07/17 04:34:48;;;;;;;8.00;2.15;;;;;;;;;;5022990;28;20044;-65
2023/07/17 04:37:14;;;;;;;8.48;2.20;;;;;;;;;;5023104;28;20507;-65
2023/07/17 04:39:40;;;;;;;7.55;2.67;;;;;;;;;;5023775;28;20029;-65
2023/07/17 04:42:07;;;;;;;7.38;3.15;;;;;;;;;;5023487;28;20032;-65
2023/07/17 04:44:33;;;;;;;6.75;2.25;;;;;;;;;;5023705;28;20030;-65
2023/07/17 04:47:01;;;;;;;15.10;3.15;;;;;;;;;;5022558;28;20033;-65
2023/07/17 04:49:30;;;;;;;8.70;1.90;;;;;;;;;;5023351;28;20033;-65
2023/07/17 04:51:56;;;;;;;8.57;2.35;;;;;;;;;;5021319;28;20038;-63
2023/07/17 04:54:22;;;;;;;10.15;2.58;;;;;;;;;;5023505;28;20048;-63
2023/07/17 04:56:48;;;;;;;11.90;2.85;;;;;;;;;;5024124;28;20388;-63
2023/07/17 04:59:15;;;;;;;8.48;2.70;;;;;;;;;;5023560;28;20056;-63
2023/07/17 05:01:41;;;;;;;9.77;2.70;;;;;;;;;;5023163;28;20041;-63
2023/07/17 05:04:07;;;;;;;10.93;2.58;;;;;;;;;;5026521;28;20033;-63
2023/07/17 05:06:33;;;;;;;12.45;3.20;;;;;;;;;;5026657;28;20033;-63
2023/07/17 05:08:59;;;;;;;7.20;2.20;;;;;;;;;;5027137;28;20025;-63
2023/07/17 05:11:25;;;;;;;10.73;3.25;;;;;;;;;;5026784;28;20076;-63
2023/07/17 05:13:51;;;;;;;9.88;3.03;;;;;;;;;;5025668;28;20157;-63
2023/07/17 05:16:17;;;;;;;11.48;2.88;;;;;;;;;;5026416;28;20437;-63
2023/07/17 05:18:43;;;;;;;7.97;2.70;;;;;;;;;;5026153;28;20035;-63
2023/07/17 05:21:09;;;;;;;10.90;2.95;;;;;;;;;;5026285;28;20057;-64
2023/07/17 05:23:35;;;;;;;11.75;3.70;;;;;;;;;;5027339;28;20037;-64
2023/07/17 05:26:03;;;;;;;10.63;2.65;;;;;;;;;;5027508;28;20053;-63
2023/07/17 05:28:29;;;;;;;11.63;3.15;;;;;;;;;;5027685;28;20678;-64
2023/07/17 05:30:56;;;;;;;12.27;3.25;;;;;;;;;;5026336;28;20057;-63
2023/07/17 05:33:25;;;;;;;8.57;2.40;;;;;;;;;;5026185;28;20032;-64
2023/07/17 05:35:52;;;;;;;9.75;2.55;;;;;;;;;;5026773;28;20029;-64
2023/07/17 05:38:18;;;;;;;9.27;2.78;;;;;;;;;;5025645;28;20040;-64
2023/07/17 05:40:44;;;;;;;12.32;3.40;;;;;;;;;;5025742;28;20037;-64
2023/07/17 05:43:10;;;;;;;13.07;3.42;;;;;;;;;;5025732;28;20060;-64
2023/07/17 05:45:37;;;;;;;11.38;3.08;;;;;;;;;;5030818;28;20024;-64
2023/07/17 05:48:03;;;;;;;11.15;2.72;;;;;;;;;;5025581;28;20593;-64
2023/07/17 05:50:29;;;;;;;12.60;3.30;;;;;;;;;;5024669;28;20501;-64
2023/07/17 05:52:55;;;;;;;12.45;3.55;;;;;;;;;;5026649;28;20040;-64
2023/07/17 05:55:21;;;;;;;8.90;2.90;;;;;;;;;;5025952;28;20056;-64
2023/07/17 05:57:47;;;;;;;8.38;3.00;;;;;;;;;;5025707;28;20033;-64
2023/07/17 06:00:14;;;;;;;12.63;3.38;;;;;;;;;;5025057;28;20068;-64
2023/07/17 06:02:41;;;;;;;9.95;2.72;;;;;;;;;;5023957;28;20068;-64
2023/07/17 06:05:07;;;;;;;10.18;3.17;;;;;;;;;;5026308;28;20030;-64
2023/07/17 06:07:34;;;;;;;9.55;3.15;;;;;;;;;;5025487;28;20033;-64
2023/07/17 06:10:00;;;;;;;7.90;2.83;;;;;;;;;;5025985;28;20037;-64
2023/07/17 06:12:26;;;;;;;10.18;3.15;;;;;;;;;;5025802;28;20816;-64
2023/07/17 06:14:52;;;;;;;13.73;3.70;;;;;;;;;;5025488;28;20119;-64
2023/07/17 06:17:18;;;;;;;8.93;2.78;;;;;;;;;;5024378;28;20072;-64
2023/07/17 06:19:44;;;;;;;12.15;3.35;;;;;;;;;;5017595;28;20110;-64
2023/07/17 06:22:10;;;;;;;11.45;3.42;;;;;;;;;;5018202;28;20105;-64
2023/07/17 06:24:36;;;;;;;11.20;4.03;;;;;;;;;;5017724;28;20044;-64
2023/07/17 06:27:02;;;;;;;12.70;3.75;;;;;;;;;;5018360;28;20030;-64
2023/07/17 06:29:29;;;;;;;12.88;4.45;;;;;;;;;;5017798;28;20056;-64
2023/07/17 06:31:55;;;;;;;9.10;3.75;;;;;;;;;;5017894;28;20029;-64
2023/07/17 06:34:21;;;;;;;13.15;3.80;;;;;;;;;;5017202;28;20083;-64
2023/07/17 06:36:48;;;;;;;9.68;3.50;;;;;;;;;;5016361;28;20045;-64
2023/07/17 06:39:14;;;;;;;14.30;3.58;;;;;;;;;;5017912;28;20562;-64
2023/07/17 06:41:40;;;;;;;13.15;4.65;;;;;;;;;;5017533;28;21826;-64
2023/07/17 06:44:06;;;;;;;11.38;4.00;;;;;;;;;;5018482;28;20489;-64
2023/07/17 06:46:32;;;;;;;13.38;4.70;;;;;;;;;;5018407;28;20441;-64
2023/07/17 06:48:58;;;;;;;13.88;4.50;;;;;;;;;;5017754;28;20480;-64
2023/07/17 06:51:25;;;;;;;14.05;4.80;;;;;;;;;;5018129;28;20652;-64
2023/07/17 06:53:52;;;;;;;9.00;3.60;;;;;;;;;;5018207;28;20040;-64
2023/07/17 06:56:18;;;;;;;14.07;3.70;;;;;;;;;;5017980;28;20380;-64
2023/07/17 06:58:44;;;;;;;10.95;4.10;;;;;;;;;;5017347;28;20637;-64
2023/07/17 07:01:11;;;;;;;10.80;4.05;;;;;;;;;;5017547;28;20034;-64
2023/07/17 07:03:37;;;;;;;11.73;4.15;;;;;;;;;;5016173;28;20488;-64
2023/07/17 07:06:04;;;;;;;10.32;3.92;;;;;;;;;;5016901;28;20037;-64
2023/07/17 07:08:31;;;;;;;12.98;4.28;;;;;;;;;;5016863;28;20029;-64
2023/07/17 07:10:57;;;;;;;10.80;4.57;;;;;;;;;;5016622;28;20040;-64
2023/07/17 07:13:24;;;;;;;8.95;4.00;;;;;;;;;;5016955;28;20045;-64
2023/07/17 07:15:51;;;;;;;12.98;4.15;;;;;;;;;;5016647;28;20082;-64
2023/07/17 07:18:17;;;;;;;12.38;3.95;;;;;;;;;;5020656;28;21883;-64
2023/07/17 07:20:44;;;;;;;8.23;3.53;;;;;;;;;;5016154;28;20889;-64
2023/07/17 07:23:10;;;;;;;8.93;3.30;;;;;;;;;;5016907;28;20024;-64
2023/07/17 07:25:36;;;;;;;10.13;3.40;;;;;;;;;;5016400;28;20040;-64
2023/07/17 07:28:03;;;;;;;9.50;3.53;;;;;;;;;;5016064;28;20785;-64
2023/07/17 07:30:29;;;;;;;10.10;3.17;;;;;;;;;;5016738;28;20033;-64
2023/07/17 07:32:55;;;;;;;8.65;3.05;;;;;;;;;;5019924;28;20056;-64
2023/07/17 07:35:21;;;;;;;12.48;3.67;;;;;;;;;;5014890;28;20025;-64
2023/07/17 07:37:48;;;;;;;9.30;3.30;;;;;;;;;;5015596;28;20037;-64
2023/07/17 07:40:14;;;;;;;9.57;2.88;;;;;;;;;;5015265;28;20531;-64
2023/07/17 07:42:41;;;;;;;12.00;3.92;;;;;;;;;;5016291;28;21396;-64
2023/07/17 07:45:07;;;;;;;9.68;3.38;;;;;;;;;;5016077;28;20028;-64
2023/07/17 07:47:33;;;;;;;10.25;3.60;;;;;;;;;;5016235;28;20037;-64
2023/07/17 07:50:00;;;;;;;10.70;3.40;;;;;;;;;;5015642;28;20624;-64
2023/07/17 07:52:26;;;;;;;11.68;3.80;;;;;;;;;;5016177;28;20029;-64
2023/07/17 07:54:53;;;;;;;10.25;3.33;;;;;;;;;;5015794;28;20099;-64
2023/07/17 07:57:19;;;;;;;12.95;4.18;;;;;;;;;;5016666;28;20330;-64
2023/07/17 07:59:45;;;;;;;12.40;4.43;;;;;;;;;;5015584;28;21000;-64
2023/07/17 08:02:12;;;;;;;8.82;3.47;;;;;;;;;;5014369;28;21823;-65
2023/07/17 08:04:38;;;;;;;13.48;4.28;;;;;;;;;;5013379;28;20029;-64
2023/07/17 08:07:05;;;;;;;10.05;3.75;;;;;;;;;;5013425;28;20582;-64
2023/07/17 08:09:31;;;;;;;12.18;4.28;;;;;;;;;;5015868;28;20086;-64
2023/07/17 08:11:57;;;;;;;10.52;3.47;;;;;;;;;;5015491;28;20524;-64
2023/07/17 08:14:23;;;;;;;11.73;3.88;;;;;;;;;;5014912;28;20029;-64
2023/07/17 08:16:50;;;;;;;9.48;3.47;;;;;;;;;;5015345;28;20063;-64
2023/07/17 08:19:17;;;;;;;10.27;3.30;;;;;;;;;;5015758;28;21269;-64
2023/07/17 08:21:43;;;;;;;10.70;3.97;;;;;;;;;;5015172;28;20503;-64
2023/07/17 08:24:09;;;;;;;9.27;3.15;;;;;;;;;;5014514;28;20040;-64
2023/07/17 08:26:36;;;;;;;11.10;3.80;;;;;;;;;;5016174;28;20052;-64
2023/07/17 08:29:03;;;;;;;8.20;2.97;;;;;;;;;;5015267;28;20024;-64
2023/07/17 08:31:31;;;;;;;10.98;3.10;;;;;;;;;;5015638;28;20532;-64
2023/07/17 08:33:58;;;;;;;10.80;3.45;;;;;;;;;;5015244;28;21280;-64
2023/07/17 08:36:24;;;;;;;10.35;3.90;;;;;;;;;;5016840;28;20061;-64
2023/07/17 08:38:50;;;;;;;9.52;3.08;;;;;;;;;;5020042;28;20036;-64
2023/07/17 08:41:16;;;;;;;8.18;2.63;;;;;;;;;;5019039;28;20061;-64
2023/07/17 08:43:43;;;;;;;9.10;2.90;;;;;;;;;;5019919;28;20037;-64
2023/07/17 08:46:10;;;;;;;8.75;2.63;;;;;;;;;;5019405;28;20025;-64
2023/07/17 08:48:36;;;;;;;8.43;2.90;;;;;;;;;;5018536;28;20029;-64
2023/07/17 08:51:02;;;;;;;8.20;1.98;;;;;;;;;;5020899;28;20047;-64
2023/07/17 08:53:28;;;;;;;11.05;2.67;;;;;;;;;;5019928;28;20034;-64
2023/07/17 08:55:55;;;;;;;7.22;2.13;;;;;;;;;;5020403;28;20037;-64
2023/07/17 08:58:25;;;;;;;9.48;2.65;;;;;;;;;;5020326;28;21323;-64
2023/07/17 09:00:52;;;;;;;6.47;2.45;;;;;;;;;;5017901;28;20704;-64
2023/07/17 09:03:19;;;;;;;9.35;2.35;;;;;;;;;;5019932;28;20167;-64
2023/07/17 09:05:45;;;;;;;9.88;2.55;;;;;;;;;;5019240;28;20076;-64
2023/07/17 09:08:15;;;;;;;5.80;2.47;;;;;;;;;;5019595;28;20037;-64
2023/07/17 09:10:41;;;;;;;9.70;2.67;;;;;;;;;;5019123;28;20738;-64
2023/07/17 09:13:07;;;;;;;7.68;2.30;;;;;;;;;;5019623;28;20435;-64
2023/07/17 09:15:33;;;;;;;5.53;2.28;;;;;;;;;;5019480;28;20544;-64
2023/07/17 09:18:00;;;;;;;9.73;3.38;;;;;;;;;;5018999;28;20060;-64
2023/07/17 09:20:27;;;;;;;7.05;2.15;;;;;;;;;;5020063;28;20497;-64
2023/07/17 09:22:56;;;;;;;9.70;2.40;;;;;;;;;;5019274;28;20145;-64
2023/07/17 09:25:26;;;;;;;6.60;2.20;;;;;;;;;;5018518;28;20049;-64
2023/07/17 09:27:52;;;;;;;8.52;2.63;;;;;;;;;;5016121;28;20017;-64
2023/07/17 09:30:19;;;;;;;7.35;2.15;;;;;;;;;;5018051;28;20021;-64
2023/07/17 09:32:46;;;;;;;5.95;1.88;;;;;;;;;;5017889;28;20797;-64
2023/07/17 09:35:12;;;;;;;8.90;2.65;;;;;;;;;;5018263;28;20032;-64
2023/07/17 09:37:40;;;;;;;6.35;2.28;;;;;;;;;;5017092;28;20044;-64
2023/07/17 09:40:24;;;;;;;7.78;2.10;;;;;;;;;;5019190;28;20496;-64
2023/07/17 09:42:55;;;;;;;9.95;2.58;;;;;;;;;;5017986;28;20033;-64
2023/07/17 09:45:21;;;;;;;7.28;2.45;;;;;;;;;;5019242;28;20028;-64
2023/07/17 09:47:49;;;;;;;6.47;2.05;;;;;;;;;;5018133;28;20037;-64
2023/07/17 09:50:18;;;;;;;7.63;2.05;;;;;;;;;;5018405;28;20118;-64
2023/07/17 09:52:47;;;;;;;6.95;2.63;;;;;;;;;;5017772;28;20033;-64
2023/07/17 09:55:14;;;;;;;5.68;2.00;;;;;;;;;;5018671;28;20939;-64
2023/07/17 09:57:43;;;;;;;7.72;2.30;;;;;;;;;;5018421;28;20114;-64
2023/07/17 10:00:17;;;;;;;7.47;2.20;;;;;;;;;;5018369;28;20024;-63
2023/07/17 10:02:51;;;;;;;7.55;2.45;;;;;;;;;;5018282;28;20567;-64
2023/07/17 10:05:18;;;;;;;6.55;2.20;;;;;;;;;;5018728;28;20884;-64
2023/07/17 10:07:45;;;;;;;5.70;1.98;;;;;;;;;;5014380;28;20182;-64
2023/07/17 10:10:11;;;;;;;8.35;2.13;;;;;;;;;;5017604;28;20041;-64
2023/07/17 10:12:38;;;;;;;6.63;2.00;;;;;;;;;;5017389;28;20037;-64
2023/07/17 10:15:04;;;;;;;6.63;1.73;;;;;;;;;;5016937;28;20051;-64
2023/07/17 10:17:32;;;;;;;7.85;2.05;;;;;;;;;;5015628;28;20706;-64
2023/07/17 10:19:59;;;;;;;7.55;2.30;;;;;;;;;;5016228;28;20079;-64
2023/07/17 10:22:32;;;;;;;7.53;2.05;;;;;;;;;;5015230;28;20198;-64
2023/07/17 10:24:58;;;;;;;5.32;1.70;;;;;;;;;;5016671;28;20053;-64
2023/07/17 10:27:41;;;;;;;6.43;2.13;;;;;;;;;;5016047;28;20038;-63
2023/07/17 10:30:37;;;;;;;6.40;1.80;;;;;;;;;;5015257;28;20175;-64
2023/07/17 10:33:06;;;;;;;7.70;2.15;;;;;;;;;;5012314;28;20695;-64
2023/07/17 10:35:44;;;;;;;5.80;1.83;;;;;;;;;;5010809;28;20037;-64
2023/07/17 10:38:11;;;;;;;5.88;1.88;;;;;;;;;;5011061;28;20037;-64
2023/07/17 10:40:37;;;;;;;6.35;2.03;;;;;;;;;;5011053;28;20504;-64
2023/07/17 10:43:12;;;;;;;7.40;2.03;;;;;;;;;;5011180;28;21871;-64
2023/07/17 10:45:38;;;;;;;6.00;2.15;;;;;;;;;;5011307;28;20060;-64
2023/07/17 10:48:08;;;;;;;7.38;2.05;;;;;;;;;;5010338;28;20021;-64
2023/07/17 10:50:34;;;;;;;7.28;1.95;;;;;;;;;;5011112;28;20038;-62
2023/07/17 10:53:03;;;;;;;7.85;2.17;;;;;;;;;;5011937;28;21760;-64
2023/07/17 10:55:30;;;;;;;5.78;2.05;;;;;;;;;;5010286;28;20025;-62
2023/07/17 10:57:57;;;;;;;8.30;2.35;;;;;;;;;;5010756;28;20496;-63
2023/07/17 11:00:24;;;;;;;5.20;2.20;;;;;;;;;;5008606;28;20025;-63
2023/07/17 11:02:50;;;;;;;7.43;2.17;;;;;;;;;;5008042;28;20149;-63
2023/07/17 11:05:16;;;;;;;5.72;1.80;;;;;;;;;;5009456;28;20035;-63
2023/07/17 11:07:42;;;;;;;6.55;2.00;;;;;;;;;;5010451;28;20044;-63
2023/07/17 11:10:12;;;;;;;9.63;2.38;;;;;;;;;;5010351;28;20025;-63
2023/07/17 11:12:45;;;;;;;6.72;2.03;;;;;;;;;;5009453;28;20037;-63
2023/07/17 11:15:14;;;;;;;6.30;2.40;;;;;;;;;;5010219;28;20056;-63
2023/07/17 11:17:41;;;;;;;4.43;2.10;;;;;;;;;;5008982;28;20075;-63
2023/07/17 11:20:07;;;;;;;7.40;2.13;;;;;;;;;;5009089;28;20123;-63
2023/07/17 11:22:33;;;;;;;7.55;2.13;;;;;;;;;;5009461;28;20159;-64
2023/07/17 11:25:00;;;;;;;8.13;2.35;;;;;;;;;;5010292;28;20537;-63
2023/07/17 11:27:26;;;;;;;5.15;1.88;;;;;;;;;;5009585;28;20036;-63
2023/07/17 11:29:53;;;;;;;7.47;1.90;;;;;;;;;;5009652;28;20033;-63
2023/07/17 11:32:19;;;;;;;6.05;1.95;;;;;;;;;;5009065;28;20094;-63
2023/07/17 11:34:59;;;;;;;7.22;1.90;;;;;;;;;;5009922;28;20032;-63
2023/07/17 11:37:34;;;;;;;5.82;1.75;;;;;;;;;;5008330;28;20034;-63
2023/07/17 11:40:08;;;;;;;5.20;1.70;;;;;;;;;;5009557;28;20199;-63
2023/07/17 11:42:53;;;;;;;5.18;1.60;;;;;;;;;;5009701;28;20596;-63
2023/07/17 11:45:27;;;;;;;7.65;1.80;;;;;;;;;;5012794;28;22087;-63
2023/07/17 11:47:53;;;;;;;;;;;;;;;;;;5009211;28;21074;-63
2023/07/17 11:50:19;;;;;;;4.13;1.63;;;;;;;;;;5009895;28;19917;-63
2023/07/17 11:52:45;;;;;;;6.70;1.90;;;;;;;;;;5015351;28;20724;-63
2023/07/17 11:55:20;;;;;;;7.90;2.17;;;;;;;;;;5015143;28;20373;-63
2023/07/17 11:57:50;;;;;;;6.03;1.65;;;;;;;;;;5015519;28;20068;-63
2023/07/17 12:00:20;;;;;;;6.10;1.80;;;;;;;;;;5015201;28;20039;-64
2023/07/17 12:02:46;;;;;;;7.43;1.98;;;;;;;;;;5016122;28;20041;-63
2023/07/17 12:05:12;;;;;;;6.88;2.08;;;;;;;;;;5015524;28;20388;-64
2023/07/17 12:07:38;;;;;;;8.63;2.10;;;;;;;;;;5015097;28;20120;-64
2023/07/17 12:10:05;;;;;;;5.72;1.88;;;;;;;;;;5015362;28;20074;-64
2023/07/17 12:12:33;;;;;;;6.43;2.25;;;;;;;;;;5014668;28;20120;-63
2023/07/17 12:14:59;;;;;;;6.28;2.03;;;;;;;;;;5014325;28;20041;-64
2023/07/17 12:17:25;;;;;;;5.55;1.75;;;;;;;;;;5013152;28;20037;-63
2023/07/17 12:19:51;;;;;;;8.23;2.40;;;;;;;;;;5014757;28;20025;-63
2023/07/17 12:22:18;;;;;;;7.07;2.30;;;;;;;;;;5017988;28;20171;-64
2023/07/17 12:24:44;;;;;;;8.38;2.00;;;;;;;;;;5015026;28;20041;-64
2023/07/17 12:27:10;;;;;;;6.95;2.13;;;;;;;;;;5014970;28;20033;-63
2023/07/17 12:29:36;;;;;;;8.18;2.63;;;;;;;;;;5014913;28;20151;-64
2023/07/17 12:32:03;;;;;;;5.88;1.92;;;;;;;;;;5014368;28;20072;-64
2023/07/17 12:34:29;;;;;;;7.25;2.20;;;;;;;;;;5015599;28;20072;-63
2023/07/17 12:36:55;;;;;;;4.95;1.80;;;;;;;;;;5012824;28;20041;-63
2023/07/17 12:39:25;;;;;;;7.45;2.38;;;;;;;;;;5013881;28;20029;-64
2023/07/17 12:41:51;;;;;;;7.78;2.15;;;;;;;;;;5012949;28;20030;-63
2023/07/17 12:44:17;;;;;;;8.95;2.03;;;;;;;;;;5014426;28;20113;-64
2023/07/17 12:46:44;;;;;;;6.43;2.25;;;;;;;;;;5013164;28;20044;-64
2023/07/17 12:49:11;;;;;;;7.82;2.13;;;;;;;;;;5014089;28;20098;-63
2023/07/17 12:51:38;;;;;;;10.63;2.50;;;;;;;;;;5013165;28;20052;-64
2023/07/17 12:54:04;;;;;;;7.90;1.80;;;;;;;;;;5014556;28;21902;-64
2023/07/17 12:56:30;;;;;;;8.05;2.20;;;;;;;;;;5014518;28;20614;-64
2023/07/17 12:58:57;;;;;;;5.72;1.98;;;;;;;;;;5015123;28;20029;-63
2023/07/17 13:01:23;;;;;;;5.55;1.95;;;;;;;;;;5015082;28;20076;-63
2023/07/17 13:03:49;;;;;;;7.43;2.20;;;;;;;;;;5020607;28;21869;-64
2023/07/17 13:06:15;;;;;;;7.75;2.40;;;;;;;;;;5014314;28;20037;-64
2023/07/17 13:08:41;;;;;;;8.65;1.95;;;;;;;;;;5014773;28;20072;-64
2023/07/17 13:11:07;;;;;;;9.80;2.58;;;;;;;;;;5014862;28;20032;-64
2023/07/17 13:13:34;;;;;;;4.78;2.30;;;;;;;;;;5014286;28;21615;-64
2023/07/17 13:16:00;;;;;;;6.53;1.90;;;;;;;;;;5015235;28;20032;-64
2023/07/17 13:18:26;;;;;;;9.65;2.10;;;;;;;;;;5014507;28;20048;-64
2023/07/17 13:20:52;;;;;;;6.72;2.17;;;;;;;;;;5014649;28;20087;-64
2023/07/17 13:23:18;;;;;;;6.28;2.15;;;;;;;;;;5014023;28;20038;-65
2023/07/17 13:25:45;;;;;;;6.45;2.10;;;;;;;;;;5018187;28;20148;-65
2023/07/17 13:28:11;;;;;;;5.50;1.88;;;;;;;;;;5017370;28;20021;-65
2023/07/17 13:30:39;;;;;;;6.82;1.95;;;;;;;;;;5017138;28;20055;-65
2023/07/17 13:33:05;;;;;;;4.93;1.65;;;;;;;;;;5017507;28;20036;-65
2023/07/17 13:35:31;;;;;;;5.80;1.80;;;;;;;;;;5018281;28;20038;-65
2023/07/17 13:37:57;;;;;;;4.97;1.40;;;;;;;;;;5017894;28;20033;-65
2023/07/17 13:40:24;;;;;;;10.30;2.25;;;;;;;;;;5017852;28;20022;-65
2023/07/17 13:42:50;;;;;;;7.03;2.30;;;;;;;;;;5018445;28;20049;-65
2023/07/17 13:45:16;;;;;;;5.05;1.75;;;;;;;;;;5017082;28;20057;-65
2023/07/17 13:47:43;;;;;;;6.55;2.00;;;;;;;;;;5017210;28;20040;-65
2023/07/17 13:50:09;;;;;;;4.82;1.73;;;;;;;;;;5016109;28;20048;-65
2023/07/17 13:52:35;;;;;;;6.75;2.10;;;;;;;;;;5017211;28;20033;-65
2023/07/17 13:55:02;;;;;;;6.28;1.60;;;;;;;;;;5015267;28;20041;-65
2023/07/17 13:57:28;;;;;;;5.57;1.95;;;;;;;;;;5016451;28;20129;-65
2023/07/17 13:59:54;;;;;;;7.45;2.30;;;;;;;;;;5017129;28;20091;-65
2023/07/17 14:02:21;;;;;;;5.03;1.75;;;;;;;;;;5016797;28;20068;-65
2023/07/17 14:04:47;;;;;;;7.78;2.60;;;;;;;;;;5016838;28;20646;-65
2023/07/17 14:07:13;;;;;;;4.25;2.03;;;;;;;;;;5016583;28;20596;-64
2023/07/17 14:09:39;;;;;;;5.97;1.98;;;;;;;;;;5016160;28;20102;-65
2023/07/17 14:12:05;;;;;;;5.97;2.03;;;;;;;;;;5017437;28;20725;-65
2023/07/17 14:14:31;;;;;;;8.98;2.08;;;;;;;;;;5016646;28;20056;-65
2023/07/17 14:16:57;;;;;;;7.68;2.10;;;;;;;;;;5017091;28;20037;-65
2023/07/17 14:19:23;;;;;;;8.32;2.15;;;;;;;;;;5016724;28;20037;-65
2023/07/17 14:21:49;;;;;;;7.95;1.85;;;;;;;;;;5015847;28;20049;-65
2023/07/17 14:24:15;;;;;;;10.30;2.92;;;;;;;;;;5017873;28;21778;-65
2023/07/17 14:26:41;;;;;;;7.38;2.20;;;;;;;;;;5017040;28;20033;-65
2023/07/17 14:29:07;;;;;;;6.50;1.75;;;;;;;;;;5017620;28;20041;-65
2023/07/17 14:31:34;;;;;;;9.30;2.20;;;;;;;;;;5017295;28;20400;-65
2023/07/17 14:34:00;;;;;;;3.38;1.63;;;;;;;;;;5015695;28;20048;-65
2023/07/17 14:36:26;;;;;;;7.20;1.95;;;;;;;;;;5015608;28;20029;-65
2023/07/17 14:38:52;;;;;;;7.03;2.03;;;;;;;;;;5015012;28;20123;-65